createdAt,value
2019-05-23T00:00:44.684Z,69.34
2019-05-23T00:03:18.975Z,70.04
2019-05-23T00:05:52.594Z,69.75
2019-05-23T00:08:27.137Z,69.92
2019-05-23T00:11:15.770Z,66.52
2019-05-23T00:13:52.182Z,64.83
2019-05-23T00:16:24.517Z,66.62
2019-05-23T00:18:56.542Z,66.79
2019-05-23T00:21:28.295Z,66.48
2019-05-23T00:24:00.454Z,67.30
2019-05-23T00:26:32.770Z,67.87
2019-05-23T00:29:10.776Z,68.12
2019-05-23T00:31:46.535Z,68.27
2019-05-23T00:34:17.926Z,68.13
2019-05-23T00:36:49.728Z,68.20
2019-05-23T00:39:23.278Z,68.26
2019-05-23T00:41:56.563Z,68.12
2019-05-23T00:44:29.142Z,68.64
2019-05-23T00:47:01.771Z,69.25
2019-05-23T00:49:33.850Z,69.32
2019-05-23T00:52:06.151Z,69.33
2019-05-23T00:54:36.909Z,69.54
2019-05-23T00:57:09.779Z,69.80
2019-05-23T00:59:41.853Z,70.02
2019-05-23T01:02:13.011Z,70.21
2019-05-23T01:04:45.447Z,70.59
2019-05-23T01:07:19.651Z,70.99
2019-05-23T01:09:50.836Z,71.32
2019-05-23T01:12:22.831Z,70.98
2019-05-23T01:14:54.173Z,70.52
2019-05-23T01:17:27.524Z,70.63
2019-05-23T01:19:59.150Z,70.83
2019-05-23T01:22:30.412Z,70.96
2019-05-23T01:25:01.387Z,71.31
2019-05-23T01:27:32.593Z,71.65
2019-05-23T01:30:07.386Z,71.68
2019-05-23T01:32:47.401Z,71.90
2019-05-23T01:35:24.067Z,69.53
2019-05-23T01:37:55.340Z,66.53
2019-05-23T01:40:26.289Z,64.92
2019-05-23T01:42:57.353Z,64.75
2019-05-23T01:45:30.317Z,63.33
2019-05-23T01:48:01.914Z,62.21
2019-05-23T01:50:32.731Z,60.68
2019-05-23T01:53:06.531Z,60.33
2019-05-23T01:55:37.403Z,59.84
2019-05-23T01:58:09.586Z,59.36
2019-05-23T02:00:40.393Z,60.09
2019-05-23T02:03:11.421Z,60.37
2019-05-23T02:05:42.534Z,60.68
2019-05-23T02:08:15.595Z,61.15
2019-05-23T02:10:48.222Z,61.90
2019-05-23T02:13:19.591Z,62.63
2019-05-23T02:15:50.354Z,62.97
2019-05-23T02:18:22.119Z,62.95
2019-05-23T02:20:52.874Z,63.05
2019-05-23T02:23:24.133Z,62.96
2019-05-23T02:25:58.023Z,62.82
2019-05-23T02:28:30.330Z,62.64
2019-05-23T02:30:58.571Z,62.88
2019-05-23T02:33:29.507Z,63.20
2019-05-23T02:36:00.991Z,63.16
2019-05-23T02:39:05.839Z,63.00
2019-05-23T02:41:50.830Z,62.66
2019-05-23T02:44:24.760Z,61.97
2019-05-23T02:47:04.363Z,61.94
2019-05-23T02:49:37.388Z,61.64
2019-05-23T02:52:23.382Z,61.67
2019-05-23T02:54:57.338Z,63.50
2019-05-23T02:57:30.414Z,64.87
2019-05-23T03:00:11.375Z,65.56
2019-05-23T03:03:05.158Z,65.83
2019-05-23T03:05:37.530Z,65.67
2019-05-23T03:08:10.298Z,62.88
2019-05-23T03:11:15.965Z,60.67
2019-05-23T03:13:48.290Z,59.03
2019-05-23T03:16:23.488Z,57.12
2019-05-23T03:19:00.012Z,57.17
2019-05-23T03:21:31.446Z,57.70
2019-05-23T03:24:02.459Z,58.07
2019-05-23T03:27:00.422Z,58.29
2019-05-23T03:29:34.749Z,58.67
2019-05-23T03:32:25.321Z,57.47
2019-05-23T03:35:05.549Z,55.13
2019-05-23T03:37:36.478Z,52.55
2019-05-23T03:40:07.560Z,50.84
2019-05-23T03:42:38.752Z,51.19
2019-05-23T03:45:13.880Z,50.71
2019-05-23T03:47:46.026Z,48.03
2019-05-23T03:50:16.897Z,45.32
2019-05-23T03:52:47.621Z,44.15
2019-05-23T03:55:18.903Z,42.69
2019-05-23T03:57:50.466Z,40.74
2019-05-23T04:00:25.168Z,38.92
2019-05-23T04:02:57.574Z,37.55
2019-05-23T04:05:29.747Z,37.27
2019-05-23T04:08:01.934Z,35.83
2019-05-23T04:10:33.030Z,32.90
2019-05-23T04:13:04.324Z,31.39
2019-05-23T04:15:35.465Z,30.33
2019-05-23T04:18:08.412Z,29.47
2019-05-23T04:20:39.435Z,28.19
2019-05-23T04:23:10.502Z,29.48
2019-05-23T04:25:41.304Z,31.56
2019-05-23T04:28:13.220Z,33.51
2019-05-23T04:30:44.742Z,35.22
2019-05-23T04:33:15.579Z,38.22
2019-05-23T04:35:48.368Z,40.35
2019-05-23T04:38:19.169Z,42.84
2019-05-23T04:40:50.202Z,45.97
2019-05-23T04:43:21.473Z,48.05
2019-05-23T04:45:52.204Z,49.09
2019-05-23T04:48:24.512Z,50.76
2019-05-23T04:50:59.770Z,50.82
2019-05-23T04:53:28.406Z,48.42
2019-05-23T04:55:59.232Z,43.81
2019-05-23T04:58:30.896Z,39.47
2019-05-23T05:01:03.375Z,38.31
2019-05-23T05:03:34.648Z,34.54
2019-05-23T05:06:07.192Z,32.86
2019-05-23T05:08:38.301Z,31.56
2019-05-23T05:11:10.352Z,34.74
2019-05-23T05:13:41.501Z,37.95
2019-05-23T05:16:13.218Z,40.94
2019-05-23T05:18:44.239Z,42.89
2019-05-23T05:21:16.028Z,45.07
2019-05-23T05:23:46.799Z,44.87
2019-05-23T05:26:22.889Z,47.14
2019-05-23T05:28:53.932Z,46.90
2019-05-23T05:31:25.680Z,49.02
2019-05-23T05:33:56.699Z,48.85
2019-05-23T05:36:27.579Z,47.82
2019-05-23T05:38:58.303Z,49.86
2019-05-23T05:41:29.142Z,52.54
2019-05-23T05:44:00.811Z,52.78
2019-05-23T05:46:33.396Z,49.88
2019-05-23T05:49:05.695Z,42.98
2019-05-23T05:51:36.279Z,37.17
2019-05-23T05:54:09.806Z,35.80
2019-05-23T05:56:41.505Z,35.96
2019-05-23T05:59:13.191Z,35.03
2019-05-23T06:01:43.693Z,35.75
2019-05-23T06:04:14.658Z,36.03
2019-05-23T06:06:52.837Z,38.11
2019-05-23T06:09:27.824Z,39.29
2019-05-23T06:11:58.713Z,40.08
2019-05-23T06:14:29.477Z,38.35
2019-05-23T06:17:01.244Z,36.17
2019-05-23T06:19:32.764Z,34.99
2019-05-23T06:22:04.631Z,33.61
2019-05-23T06:24:46.702Z,32.59
2019-05-23T06:27:13.868Z,29.73
2019-05-23T06:29:47.947Z,29.66
2019-05-23T06:32:21.278Z,29.33
2019-05-23T06:34:55.511Z,29.47
2019-05-23T06:37:28.244Z,32.93
2019-05-23T06:39:59.298Z,34.60
2019-05-23T06:42:30.693Z,35.87
2019-05-23T06:45:02.785Z,37.25
2019-05-23T06:47:33.229Z,37.90
2019-05-23T06:50:05.674Z,38.60
2019-05-23T06:52:39.088Z,38.97
2019-05-23T06:55:10.451Z,37.10
2019-05-23T06:57:41.431Z,33.05
2019-05-23T07:00:15.276Z,31.28
2019-05-23T07:02:48.411Z,32.00
2019-05-23T07:05:22.073Z,29.49
2019-05-23T07:07:52.644Z,29.49
2019-05-23T07:10:25.638Z,31.64
2019-05-23T07:12:56.126Z,34.19
2019-05-23T07:15:29.060Z,36.49
2019-05-23T07:18:00.979Z,38.82
2019-05-23T07:20:32.071Z,40.14
2019-05-23T07:23:02.460Z,39.68
2019-05-23T07:25:32.906Z,40.36
2019-05-23T07:28:03.813Z,41.64
2019-05-23T07:30:34.348Z,42.23
2019-05-23T07:33:04.912Z,43.25
2019-05-23T07:35:35.319Z,44.77
2019-05-23T07:38:06.066Z,45.86
2019-05-23T07:40:36.533Z,45.75
2019-05-23T07:43:08.674Z,46.17
2019-05-23T07:45:53.503Z,46.92
2019-05-23T07:48:24.306Z,47.94
2019-05-23T07:50:54.718Z,48.42
2019-05-23T07:53:46.934Z,48.97
2019-05-23T07:56:19.642Z,49.54
2019-05-23T07:58:50.113Z,49.47
2019-05-23T08:01:23.235Z,50.25
2019-05-23T08:03:53.925Z,50.46
2019-05-23T08:06:24.547Z,49.98
2019-05-23T08:08:55.215Z,50.16
2019-05-23T08:11:27.427Z,49.42
2019-05-23T08:13:59.327Z,48.06
2019-05-23T08:16:29.742Z,47.71
2019-05-23T08:19:00.411Z,48.02
2019-05-23T08:21:30.913Z,47.57
2019-05-23T08:24:02.147Z,45.83
2019-05-23T08:26:34.160Z,45.88
2019-05-23T08:29:24.654Z,44.85
2019-05-23T08:31:38.036Z,45.32
2019-05-23T08:34:09.081Z,44.43
2019-05-23T08:36:40.103Z,44.71
2019-05-23T08:39:14.436Z,43.09
2019-05-23T08:41:45.597Z,43.47
2019-05-23T08:44:16.230Z,43.08
2019-05-23T08:46:47.446Z,43.28
2019-05-23T08:49:18.168Z,42.47
2019-05-23T08:51:48.973Z,43.12
2019-05-23T08:54:19.353Z,42.21
2019-05-23T08:56:50.418Z,41.98
2019-05-23T08:59:22.045Z,42.10
2019-05-23T09:01:52.920Z,42.43
2019-05-23T09:04:24.210Z,43.10
2019-05-23T09:06:57.456Z,41.94
2019-05-23T09:09:30.542Z,42.19
2019-05-23T09:12:01.739Z,43.04
2019-05-23T09:14:32.457Z,41.63
2019-05-23T09:17:04.461Z,40.73
2019-05-23T09:19:37.206Z,40.18
2019-05-23T09:22:08.184Z,40.13
2019-05-23T09:24:45.374Z,40.08
2019-05-23T09:27:15.976Z,38.63
2019-05-23T09:29:46.920Z,38.75
2019-05-23T09:32:19.397Z,41.13
2019-05-23T09:34:50.133Z,40.78
2019-05-23T09:37:21.450Z,40.76
2019-05-23T09:39:52.117Z,39.92
2019-05-23T09:42:22.942Z,39.35
2019-05-23T09:44:53.497Z,40.67
2019-05-23T09:47:23.988Z,40.47
2019-05-23T09:49:54.758Z,40.84
2019-05-23T09:52:27.151Z,39.16
2019-05-23T09:54:58.391Z,38.73
2019-05-23T09:57:29.431Z,39.17
2019-05-23T10:00:01.616Z,39.07
2019-05-23T10:02:32.823Z,39.57
2019-05-23T10:05:03.746Z,41.10
2019-05-23T10:07:34.736Z,41.98
2019-05-23T10:10:06.319Z,41.18
2019-05-23T10:12:37.509Z,41.48
2019-05-23T10:15:10.650Z,42.14
2019-05-23T10:17:41.805Z,41.86
2019-05-23T10:20:14.474Z,40.61
2019-05-23T10:22:45.056Z,39.95
2019-05-23T10:25:15.867Z,40.42
2019-05-23T10:27:46.706Z,40.32
2019-05-23T10:30:19.573Z,40.64
2019-05-23T10:32:50.832Z,41.00
2019-05-23T10:35:23.501Z,38.59
2019-05-23T10:37:54.564Z,39.54
2019-05-23T10:40:25.651Z,40.33
2019-05-23T10:42:56.550Z,40.92
2019-05-23T10:45:27.791Z,38.12
2019-05-23T10:47:59.163Z,37.63
2019-05-23T10:50:43.627Z,37.42
2019-05-23T10:53:02.706Z,37.50
2019-05-23T10:55:34.191Z,38.20
2019-05-23T10:58:06.932Z,38.92
2019-05-23T11:00:39.860Z,38.92
2019-05-23T11:03:12.373Z,39.79
2019-05-23T11:05:44.017Z,39.10
2019-05-23T11:08:15.401Z,39.88
2019-05-23T11:10:47.646Z,39.04
2019-05-23T11:13:18.590Z,38.28
2019-05-23T11:15:49.406Z,38.52
2019-05-23T11:18:21.861Z,46.07
2019-05-23T11:20:52.731Z,47.42
2019-05-23T11:23:26.748Z,47.09
2019-05-23T11:26:01.005Z,47.96
2019-05-23T11:28:32.026Z,47.90
2019-05-23T11:31:04.301Z,46.47
2019-05-23T11:33:35.975Z,47.46
2019-05-23T11:36:07.496Z,45.44
2019-05-23T11:38:41.649Z,45.12
2019-05-23T11:41:13.140Z,46.57
2019-05-23T11:43:44.998Z,45.40
2019-05-23T11:46:27.940Z,46.66
2019-05-23T11:48:58.657Z,46.48
2019-05-23T11:51:29.443Z,45.21
2019-05-23T11:54:09.684Z,45.86
2019-05-23T11:56:35.507Z,45.34
2019-05-23T11:59:06.692Z,46.14
2019-05-23T12:01:55.608Z,49.54
2019-05-23T12:04:30.218Z,55.47
2019-05-23T12:07:26.115Z,57.32
2019-05-23T12:09:57.532Z,58.30
2019-05-23T12:12:28.543Z,60.34
2019-05-23T12:14:59.134Z,61.33
2019-05-23T12:17:32.578Z,61.14
2019-05-23T12:20:03.044Z,61.87
2019-05-23T12:22:33.889Z,61.72
2019-05-23T12:25:21.430Z,61.55
2019-05-23T12:27:38.143Z,61.09
2019-05-23T12:30:11.599Z,61.50
2019-05-23T12:32:42.518Z,61.96
2019-05-23T12:35:13.879Z,63.16
2019-05-23T12:37:45.933Z,63.02
2019-05-23T12:40:17.000Z,62.92
2019-05-23T12:42:48.021Z,64.25
2019-05-23T12:45:19.340Z,65.66
2019-05-23T12:48:03.852Z,66.01
2019-05-23T12:50:44.344Z,66.47
2019-05-23T12:53:16.357Z,66.63
2019-05-23T12:55:47.039Z,66.13
2019-05-23T12:58:19.095Z,65.33
2019-05-23T13:00:55.958Z,66.45
2019-05-23T13:03:27.004Z,66.49
2019-05-23T13:05:57.438Z,65.61
2019-05-23T13:08:29.714Z,65.97
2019-05-23T13:11:00.418Z,66.10
2019-05-23T13:13:31.240Z,65.20
2019-05-23T13:16:02.004Z,63.52
2019-05-23T13:18:32.577Z,62.91
2019-05-23T13:21:02.887Z,61.61
2019-05-23T13:23:34.889Z,61.31
2019-05-23T13:26:05.927Z,60.85
2019-05-23T13:28:36.464Z,60.57
2019-05-23T13:31:06.895Z,59.84
2019-05-23T13:33:37.600Z,59.70
2019-05-23T13:36:08.003Z,59.33
2019-05-23T13:38:39.027Z,59.67
2019-05-23T13:41:12.670Z,59.83
2019-05-23T13:43:43.523Z,59.14
2019-05-23T13:46:14.482Z,59.96
2019-05-23T13:48:45.028Z,61.27
2019-05-23T13:51:15.500Z,60.26
2019-05-23T13:53:45.982Z,60.14
2019-05-23T13:56:17.420Z,59.84
2019-05-23T13:58:48.289Z,59.92
2019-05-23T14:01:21.532Z,60.29
2019-05-23T14:03:53.903Z,58.95
2019-05-23T14:06:24.941Z,57.86
2019-05-23T14:08:55.757Z,56.72
2019-05-23T14:11:26.567Z,56.49
2019-05-23T14:14:00.047Z,56.12
2019-05-23T14:16:31.730Z,55.61
2019-05-23T14:19:04.836Z,55.12
2019-05-23T14:21:36.633Z,57.79
2019-05-23T14:24:07.395Z,60.17
2019-05-23T14:26:45.171Z,64.22
2019-05-23T14:29:15.748Z,64.99
2019-05-23T14:31:55.079Z,66.01
2019-05-23T14:34:26.264Z,65.21
2019-05-23T14:37:13.117Z,65.72
2019-05-23T14:39:45.951Z,66.39
2019-05-23T14:42:38.376Z,65.46
2019-05-23T14:45:19.548Z,67.25
2019-05-23T14:48:27.583Z,66.15
2019-05-23T14:51:08.731Z,64.26
2019-05-23T14:53:41.288Z,64.21
2019-05-23T14:56:12.351Z,62.58
2019-05-23T14:58:43.100Z,62.86
2019-05-23T15:01:13.855Z,60.62
2019-05-23T15:03:44.566Z,60.76
2019-05-23T15:06:15.322Z,59.10
2019-05-23T15:08:51.120Z,58.42
2019-05-23T15:11:19.376Z,59.86
2019-05-23T15:13:50.274Z,59.92
2019-05-23T15:16:22.225Z,62.77
2019-05-23T15:18:53.068Z,63.59
2019-05-23T15:21:24.314Z,61.96
2019-05-23T15:23:55.719Z,61.80
2019-05-23T15:26:26.335Z,62.96
2019-05-23T15:28:56.878Z,62.93
2019-05-23T15:31:27.360Z,62.43
2019-05-23T15:33:57.985Z,60.84
2019-05-23T15:36:28.942Z,60.07
2019-05-23T15:39:09.565Z,60.25
2019-05-23T15:41:32.599Z,62.02
2019-05-23T15:44:19.437Z,63.31
2019-05-23T15:46:36.812Z,64.38
2019-05-23T15:49:08.241Z,64.93
2019-05-23T15:51:44.984Z,64.54
2019-05-23T15:54:32.685Z,63.90
2019-05-23T15:57:25.416Z,63.74
2019-05-23T16:00:05.439Z,63.82
2019-05-23T16:02:42.136Z,63.65
2019-05-23T16:05:14.230Z,63.30
2019-05-23T16:07:45.709Z,63.60
2019-05-23T16:10:18.575Z,63.97
2019-05-23T16:12:50.535Z,63.39
2019-05-23T16:15:20.888Z,63.29
2019-05-23T16:17:52.602Z,63.18
2019-05-23T16:20:23.729Z,64.07
2019-05-23T16:23:14.783Z,64.73
2019-05-23T16:25:45.453Z,65.63
2019-05-23T16:28:16.159Z,66.00
2019-05-23T16:30:47.325Z,66.05
2019-05-23T16:33:17.921Z,67.10
2019-05-23T16:35:48.424Z,67.20
2019-05-23T16:38:18.830Z,67.50
2019-05-23T16:40:49.572Z,67.62
2019-05-23T16:43:20.355Z,67.18
2019-05-23T16:45:51.365Z,67.55
2019-05-23T16:48:21.968Z,67.52
2019-05-23T16:50:52.679Z,67.85
2019-05-23T16:53:23.713Z,68.02
2019-05-23T16:56:11.439Z,67.65
2019-05-23T16:59:04.344Z,67.37
2019-05-23T17:01:57.859Z,67.31
2019-05-23T17:05:09.238Z,67.62
2019-05-23T17:07:50.245Z,67.32
2019-05-23T17:10:32.837Z,66.55
2019-05-23T17:13:29.264Z,65.97
2019-05-23T17:16:10.397Z,66.32
2019-05-23T17:19:09.366Z,66.26
2019-05-23T17:21:49.477Z,66.18
2019-05-23T17:24:45.607Z,66.01
2019-05-23T17:27:35.489Z,65.78
2019-05-23T17:30:17.940Z,65.54
2019-05-23T17:32:48.549Z,65.51
2019-05-23T17:35:19.121Z,65.33
2019-05-23T17:37:50.128Z,66.35
2019-05-23T17:40:24.993Z,66.38
2019-05-23T17:42:53.341Z,66.99
2019-05-23T17:45:23.791Z,66.55
2019-05-23T17:47:54.444Z,65.67
2019-05-23T17:50:25.753Z,66.18
2019-05-23T17:52:56.874Z,66.19
2019-05-23T17:55:28.480Z,66.06
2019-05-23T17:57:59.221Z,66.12
2019-05-23T18:00:36.442Z,64.75
2019-05-23T18:03:08.034Z,64.35
2019-05-23T18:05:38.734Z,64.86
2019-05-23T18:08:10.317Z,64.53
2019-05-23T18:10:45.137Z,63.84
2019-05-23T18:13:15.455Z,63.70
2019-05-23T18:15:46.921Z,63.79
2019-05-23T18:18:21.031Z,63.89
2019-05-23T18:20:54.088Z,63.84
2019-05-23T18:23:24.943Z,63.97
2019-05-23T18:25:55.574Z,64.16
2019-05-23T18:28:26.442Z,64.34
2019-05-23T18:31:05.535Z,64.36
2019-05-23T18:33:33.779Z,64.83
2019-05-23T18:36:05.071Z,65.19
2019-05-23T18:38:36.218Z,65.13
2019-05-23T18:41:09.193Z,64.69
2019-05-23T18:43:40.347Z,65.22
2019-05-23T18:46:16.366Z,64.32
2019-05-23T18:48:47.496Z,64.94
2019-05-23T18:51:18.595Z,65.63
2019-05-23T18:53:49.315Z,66.73
2019-05-23T18:56:20.625Z,66.91
2019-05-23T18:58:51.225Z,67.24
2019-05-23T19:01:24.454Z,67.02
2019-05-23T19:03:55.473Z,66.92
2019-05-23T19:06:26.038Z,66.73
2019-05-23T19:08:56.947Z,66.89
2019-05-23T19:11:27.643Z,66.63
2019-05-23T19:13:58.507Z,66.32
2019-05-23T19:16:29.447Z,66.26
2019-05-23T19:19:00.383Z,66.25
2019-05-23T19:21:31.658Z,67.09
2019-05-23T19:24:03.161Z,67.43
2019-05-23T19:26:34.653Z,67.17
2019-05-23T19:29:05.302Z,67.04
2019-05-23T19:31:36.530Z,67.04
2019-05-23T19:34:07.669Z,67.42
2019-05-23T19:36:38.425Z,67.95
2019-05-23T19:39:09.145Z,68.54
2019-05-23T19:41:40.349Z,68.21
2019-05-23T19:44:10.719Z,67.67
2019-05-23T19:46:41.166Z,67.35
2019-05-23T19:49:11.940Z,67.62
2019-05-23T19:51:43.837Z,67.66
2019-05-23T19:54:14.328Z,68.13
2019-05-23T19:56:44.594Z,68.06
2019-05-23T19:59:14.848Z,68.07
2019-05-23T20:02:07.008Z,67.84
2019-05-23T20:04:40.031Z,67.59
2019-05-23T20:07:14.642Z,67.98
2019-05-23T20:09:42.902Z,67.72
2019-05-23T20:12:15.241Z,67.32
2019-05-23T20:14:45.847Z,66.62
2019-05-23T20:17:16.829Z,65.95
2019-05-23T20:19:50.248Z,65.69
2019-05-23T20:22:19.993Z,65.74
2019-05-23T20:24:50.626Z,65.59
2019-05-23T20:27:21.561Z,64.81
2019-05-23T20:29:52.213Z,64.97
2019-05-23T20:32:24.542Z,64.73
2019-05-23T20:34:55.337Z,64.79
2019-05-23T20:37:28.095Z,64.68
2019-05-23T20:39:58.608Z,64.62
2019-05-23T20:42:31.272Z,64.24
2019-05-23T20:45:02.287Z,63.96
2019-05-23T20:47:33.656Z,63.24
2019-05-23T20:50:04.328Z,63.22
2019-05-23T20:52:34.823Z,63.84
2019-05-23T20:55:05.566Z,64.43
2019-05-23T20:57:35.973Z,64.61
2019-05-23T21:00:08.794Z,64.98
2019-05-23T21:02:39.581Z,64.77
2019-05-23T21:05:11.744Z,64.47
2019-05-23T21:07:42.370Z,64.51
2019-05-23T21:10:16.154Z,64.34
2019-05-23T21:12:47.037Z,64.64
2019-05-23T21:15:17.559Z,64.62
2019-05-23T21:17:48.063Z,64.52
2019-05-23T21:20:18.524Z,64.32
2019-05-23T21:22:49.224Z,63.56
2019-05-23T21:25:19.799Z,62.96
2019-05-23T21:27:50.276Z,62.66
2019-05-23T21:30:20.981Z,62.30
2019-05-23T21:32:51.510Z,61.68
2019-05-23T21:35:22.419Z,61.36
2019-05-23T21:37:56.128Z,61.13
2019-05-23T21:40:46.080Z,61.06
2019-05-23T21:43:17.089Z,61.10
2019-05-23T21:45:47.615Z,61.18
2019-05-23T21:51:01.276Z,61.24
2019-05-23T21:53:32.468Z,61.15
2019-05-23T21:56:02.889Z,60.87
2019-05-23T21:58:33.350Z,61.21
2019-05-23T22:01:26.544Z,61.04
2019-05-23T22:04:14.808Z,61.36
2019-05-23T22:07:04.797Z,61.36
2019-05-23T22:09:35.940Z,61.02
2019-05-23T22:12:09.011Z,60.86
2019-05-23T22:14:40.067Z,60.84
2019-05-23T22:17:10.721Z,60.74
2019-05-23T22:19:41.139Z,60.61
2019-05-23T22:22:12.191Z,60.96
2019-05-23T22:24:42.810Z,60.71
2019-05-23T22:27:14.605Z,60.44
2019-05-23T22:29:45.195Z,59.55
2019-05-23T22:32:18.191Z,59.18
2019-05-23T22:35:02.356Z,59.42
2019-05-23T22:37:33.110Z,57.75
2019-05-23T22:40:04.214Z,57.75
2019-05-23T22:42:34.884Z,57.76
2019-05-23T22:45:09.928Z,59.64
2019-05-23T22:47:40.651Z,60.11
2019-05-23T22:50:11.424Z,60.50
2019-05-23T22:52:41.734Z,62.59
2019-05-23T22:55:12.359Z,62.82
2019-05-23T22:57:42.949Z,63.27
2019-05-23T23:00:15.626Z,61.73
2019-05-23T23:02:46.377Z,60.39
2019-05-23T23:05:17.001Z,59.46
2019-05-23T23:07:47.470Z,60.07
2019-05-23T23:10:18.215Z,59.10
2019-05-23T23:12:48.772Z,58.28
2019-05-23T23:15:19.732Z,57.89
2019-05-23T23:17:50.309Z,57.67
2019-05-23T23:20:20.891Z,56.96
2019-05-23T23:22:51.363Z,56.47
2019-05-23T23:25:22.427Z,56.26
2019-05-23T23:27:53.150Z,56.35
2019-05-23T23:30:27.503Z,56.25
2019-05-23T23:32:58.092Z,55.89
2019-05-23T23:35:28.517Z,56.05
2019-05-23T23:37:59.034Z,55.95
2019-05-23T23:40:29.540Z,55.93
2019-05-23T23:42:59.993Z,56.08
2019-05-23T23:45:48.333Z,56.08
2019-05-23T23:48:36.174Z,55.94
2019-05-23T23:51:24.634Z,55.98
2019-05-23T23:54:12.454Z,56.10
2019-05-23T23:57:00.610Z,56.36
2019-05-23T23:59:30.363Z,56.74
